sensor_id;sensor_type;location;lat;lon;timestamp;P1;durP1;ratioP1;P2;durP2;ratioP2
77597;SDS011;66756;42.774;23.354;2023-05-07T00:00:52;7.55;;;6.50;;
77597;SDS011;66756;42.774;23.354;2023-05-07T00:03:18;11.35;;;6.45;;
77597;SDS011;66756;42.774;23.354;2023-05-07T00:05:45;8.88;;;5.10;;
77597;SDS011;66756;42.774;23.354;2023-05-07T00:08:11;9.27;;;5.82;;
77597;SDS011;66756;42.774;23.354;2023-05-07T00:10:37;10.75;;;6.93;;
77597;SDS011;66756;42.774;23.354;2023-05-07T00:13:03;9.23;;;6.32;;
77597;SDS011;66756;42.774;23.354;2023-05-07T00:15:29;9.52;;;5.97;;
77597;SDS011;66756;42.774;23.354;2023-05-07T00:17:55;9.18;;;6.93;;
77597;SDS011;66756;42.774;23.354;2023-05-07T00:20:24;8.15;;;6.00;;
77597;SDS011;66756;42.774;23.354;2023-05-07T00:22:50;8.20;;;5.85;;
77597;SDS011;66756;42.774;23.354;2023-05-07T00:25:16;7.00;;;5.57;;
77597;SDS011;66756;42.774;23.354;2023-05-07T00:27:44;9.35;;;4.80;;
77597;SDS011;66756;42.774;23.354;2023-05-07T00:30:10;11.10;;;6.97;;
77597;SDS011;66756;42.774;23.354;2023-05-07T00:32:37;11.73;;;7.80;;
77597;SDS011;66756;42.774;23.354;2023-05-07T00:35:03;8.82;;;6.50;;
77597;SDS011;66756;42.774;23.354;2023-05-07T00:37:29;9.32;;;7.05;;
77597;SDS011;66756;42.774;23.354;2023-05-07T00:39:55;8.40;;;5.40;;
77597;SDS011;66756;42.774;23.354;2023-05-07T00:42:21;7.28;;;6.15;;
77597;SDS011;66756;42.774;23.354;2023-05-07T00:44:49;7.20;;;5.50;;
77597;SDS011;66756;42.774;23.354;2023-05-07T00:47:15;8.93;;;6.10;;
77597;SDS011;66756;42.774;23.354;2023-05-07T00:49:42;10.07;;;7.25;;
77597;SDS011;66756;42.774;23.354;2023-05-07T00:52:09;8.48;;;5.43;;
77597;SDS011;66756;42.774;23.354;2023-05-07T00:54:36;7.35;;;5.63;;
77597;SDS011;66756;42.774;23.354;2023-05-07T00:57:02;9.02;;;6.03;;
77597;SDS011;66756;42.774;23.354;2023-05-07T00:59:29;7.43;;;5.78;;
77597;SDS011;66756;42.774;23.354;2023-05-07T01:01:56;7.93;;;5.57;;
77597;SDS011;66756;42.774;23.354;2023-05-07T01:04:22;8.63;;;5.97;;
77597;SDS011;66756;42.774;23.354;2023-05-07T01:06:48;7.38;;;5.47;;
77597;SDS011;66756;42.774;23.354;2023-05-07T01:09:14;9.95;;;6.43;;
77597;SDS011;66756;42.774;23.354;2023-05-07T01:11:40;8.10;;;6.13;;
77597;SDS011;66756;42.774;23.354;2023-05-07T01:14:07;6.82;;;4.85;;
77597;SDS011;66756;42.774;23.354;2023-05-07T01:16:34;8.27;;;6.20;;
77597;SDS011;66756;42.774;23.354;2023-05-07T01:19:00;9.65;;;5.88;;
77597;SDS011;66756;42.774;23.354;2023-05-07T01:21:26;8.57;;;6.35;;
77597;SDS011;66756;42.774;23.354;2023-05-07T01:23:55;9.68;;;5.80;;
77597;SDS011;66756;42.774;23.354;2023-05-07T01:26:22;11.30;;;6.60;;
77597;SDS011;66756;42.774;23.354;2023-05-07T01:28:48;10.50;;;6.57;;
77597;SDS011;66756;42.774;23.354;2023-05-07T01:31:15;7.75;;;6.15;;
77597;SDS011;66756;42.774;23.354;2023-05-07T01:33:42;8.23;;;4.85;;
77597;SDS011;66756;42.774;23.354;2023-05-07T01:36:09;8.43;;;6.60;;
77597;SDS011;66756;42.774;23.354;2023-05-07T01:38:37;9.77;;;6.55;;
77597;SDS011;66756;42.774;23.354;2023-05-07T01:41:03;9.50;;;6.28;;
77597;SDS011;66756;42.774;23.354;2023-05-07T01:43:29;9.45;;;6.22;;
77597;SDS011;66756;42.774;23.354;2023-05-07T01:45:56;10.32;;;6.03;;
77597;SDS011;66756;42.774;23.354;2023-05-07T01:48:23;8.68;;;5.43;;
77597;SDS011;66756;42.774;23.354;2023-05-07T01:50:50;7.05;;;5.70;;
77597;SDS011;66756;42.774;23.354;2023-05-07T01:53:16;8.05;;;6.25;;
77597;SDS011;66756;42.774;23.354;2023-05-07T01:55:42;9.65;;;5.72;;
77597;SDS011;66756;42.774;23.354;2023-05-07T01:58:08;7.22;;;5.60;;
77597;SDS011;66756;42.774;23.354;2023-05-07T02:00:35;7.40;;;5.03;;
77597;SDS011;66756;42.774;23.354;2023-05-07T02:03:01;8.60;;;5.88;;
77597;SDS011;66756;42.774;23.354;2023-05-07T02:05:28;8.60;;;6.82;;
77597;SDS011;66756;42.774;23.354;2023-05-07T02:07:54;9.43;;;6.18;;
77597;SDS011;66756;42.774;23.354;2023-05-07T02:10:20;7.93;;;5.43;;
77597;SDS011;66756;42.774;23.354;2023-05-07T02:12:45;8.32;;;5.15;;
77597;SDS011;66756;42.774;23.354;2023-05-07T02:15:12;7.50;;;5.20;;
77597;SDS011;66756;42.774;23.354;2023-05-07T02:20:23;8.20;;;5.80;;
77597;SDS011;66756;42.774;23.354;2023-05-07T02:22:49;7.05;;;5.50;;
77597;SDS011;66756;42.774;23.354;2023-05-07T02:25:15;6.57;;;4.82;;
77597;SDS011;66756;42.774;23.354;2023-05-07T02:27:41;5.72;;;4.45;;
77597;SDS011;66756;42.774;23.354;2023-05-07T02:30:07;6.57;;;5.40;;
77597;SDS011;66756;42.774;23.354;2023-05-07T02:32:34;7.05;;;5.60;;
77597;SDS011;66756;42.774;23.354;2023-05-07T02:35:00;7.93;;;5.75;;
77597;SDS011;66756;42.774;23.354;2023-05-07T02:37:26;7.15;;;5.28;;
77597;SDS011;66756;42.774;23.354;2023-05-07T02:39:52;5.90;;;5.30;;
77597;SDS011;66756;42.774;23.354;2023-05-07T02:42:18;6.55;;;4.95;;
77597;SDS011;66756;42.774;23.354;2023-05-07T02:44:44;8.00;;;4.47;;
77597;SDS011;66756;42.774;23.354;2023-05-07T02:47:10;8.05;;;5.20;;
77597;SDS011;66756;42.774;23.354;2023-05-07T02:49:38;8.48;;;5.72;;
77597;SDS011;66756;42.774;23.354;2023-05-07T02:52:04;7.28;;;5.53;;
77597;SDS011;66756;42.774;23.354;2023-05-07T02:54:30;8.60;;;5.68;;
77597;SDS011;66756;42.774;23.354;2023-05-07T02:56:56;7.60;;;5.05;;
77597;SDS011;66756;42.774;23.354;2023-05-07T02:59:23;7.30;;;5.63;;
77597;SDS011;66756;42.774;23.354;2023-05-07T03:01:50;7.75;;;5.72;;
77597;SDS011;66756;42.774;23.354;2023-05-07T03:04:16;6.85;;;5.63;;
77597;SDS011;66756;42.774;23.354;2023-05-07T03:06:42;6.82;;;5.57;;
77597;SDS011;66756;42.774;23.354;2023-05-07T03:09:08;7.50;;;5.47;;
77597;SDS011;66756;42.774;23.354;2023-05-07T03:11:34;8.50;;;5.53;;
77597;SDS011;66756;42.774;23.354;2023-05-07T03:14:00;5.30;;;3.63;;
77597;SDS011;66756;42.774;23.354;2023-05-07T03:16:27;8.23;;;5.65;;
77597;SDS011;66756;42.774;23.354;2023-05-07T03:18:53;6.72;;;5.18;;
77597;SDS011;66756;42.774;23.354;2023-05-07T03:21:19;6.80;;;5.38;;
77597;SDS011;66756;42.774;23.354;2023-05-07T03:23:45;8.55;;;5.55;;
77597;SDS011;66756;42.774;23.354;2023-05-07T03:26:11;7.00;;;5.15;;
77597;SDS011;66756;42.774;23.354;2023-05-07T03:28:37;8.05;;;6.00;;
77597;SDS011;66756;42.774;23.354;2023-05-07T03:31:03;10.30;;;5.30;;
77597;SDS011;66756;42.774;23.354;2023-05-07T03:33:29;10.35;;;5.80;;
77597;SDS011;66756;42.774;23.354;2023-05-07T03:35:55;7.50;;;6.32;;
77597;SDS011;66756;42.774;23.354;2023-05-07T03:38:21;8.27;;;6.22;;
77597;SDS011;66756;42.774;23.354;2023-05-07T03:40:47;7.93;;;5.30;;
77597;SDS011;66756;42.774;23.354;2023-05-07T03:43:13;9.02;;;6.03;;
77597;SDS011;66756;42.774;23.354;2023-05-07T03:45:39;7.90;;;5.60;;
77597;SDS011;66756;42.774;23.354;2023-05-07T03:48:05;11.75;;;6.55;;
77597;SDS011;66756;42.774;23.354;2023-05-07T03:50:31;6.72;;;6.03;;
77597;SDS011;66756;42.774;23.354;2023-05-07T03:52:57;8.43;;;6.05;;
77597;SDS011;66756;42.774;23.354;2023-05-07T03:55:23;8.43;;;6.07;;
77597;SDS011;66756;42.774;23.354;2023-05-07T03:57:50;7.32;;;6.43;;
77597;SDS011;66756;42.774;23.354;2023-05-07T04:00:16;9.10;;;7.10;;
77597;SDS011;66756;42.774;23.354;2023-05-07T04:02:42;6.90;;;4.75;;
77597;SDS011;66756;42.774;23.354;2023-05-07T04:05:08;6.75;;;5.75;;
77597;SDS011;66756;42.774;23.354;2023-05-07T04:07:34;8.48;;;6.38;;
77597;SDS011;66756;42.774;23.354;2023-05-07T04:10:00;6.47;;;5.78;;
77597;SDS011;66756;42.774;23.354;2023-05-07T04:12:27;7.68;;;5.38;;
77597;SDS011;66756;42.774;23.354;2023-05-07T04:14:53;8.65;;;6.57;;
77597;SDS011;66756;42.774;23.354;2023-05-07T04:17:19;6.82;;;6.13;;
77597;SDS011;66756;42.774;23.354;2023-05-07T04:19:45;6.18;;;4.93;;
77597;SDS011;66756;42.774;23.354;2023-05-07T04:22:11;6.13;;;4.80;;
77597;SDS011;66756;42.774;23.354;2023-05-07T04:24:37;9.80;;;5.55;;
77597;SDS011;66756;42.774;23.354;2023-05-07T04:27:03;7.20;;;5.25;;
77597;SDS011;66756;42.774;23.354;2023-05-07T04:29:31;7.15;;;5.40;;
77597;SDS011;66756;42.774;23.354;2023-05-07T04:31:57;7.32;;;4.72;;
77597;SDS011;66756;42.774;23.354;2023-05-07T04:34:23;7.18;;;6.28;;
77597;SDS011;66756;42.774;23.354;2023-05-07T04:36:49;6.53;;;4.78;;
77597;SDS011;66756;42.774;23.354;2023-05-07T04:39:15;7.78;;;5.38;;
77597;SDS011;66756;42.774;23.354;2023-05-07T04:41:41;7.88;;;5.03;;
77597;SDS011;66756;42.774;23.354;2023-05-07T04:44:07;5.72;;;4.95;;
77597;SDS011;66756;42.774;23.354;2023-05-07T04:46:34;6.47;;;4.63;;
77597;SDS011;66756;42.774;23.354;2023-05-07T04:49:00;6.85;;;5.35;;
77597;SDS011;66756;42.774;23.354;2023-05-07T04:51:26;6.00;;;4.30;;
77597;SDS011;66756;42.774;23.354;2023-05-07T04:53:52;6.22;;;4.45;;
77597;SDS011;66756;42.774;23.354;2023-05-07T04:56:18;5.40;;;4.03;;
77597;SDS011;66756;42.774;23.354;2023-05-07T04:58:45;7.60;;;5.22;;
77597;SDS011;66756;42.774;23.354;2023-05-07T05:01:11;7.13;;;4.40;;
77597;SDS011;66756;42.774;23.354;2023-05-07T05:03:37;7.35;;;4.82;;
77597;SDS011;66756;42.774;23.354;2023-05-07T05:06:04;6.65;;;4.88;;
77597;SDS011;66756;42.774;23.354;2023-05-07T05:08:30;6.68;;;4.90;;
77597;SDS011;66756;42.774;23.354;2023-05-07T05:10:56;6.28;;;4.80;;
77597;SDS011;66756;42.774;23.354;2023-05-07T05:13:23;8.25;;;5.95;;
77597;SDS011;66756;42.774;23.354;2023-05-07T05:15:49;8.85;;;4.90;;
77597;SDS011;66756;42.774;23.354;2023-05-07T05:18:15;6.47;;;4.63;;
77597;SDS011;66756;42.774;23.354;2023-05-07T05:20:41;7.47;;;4.63;;
77597;SDS011;66756;42.774;23.354;2023-05-07T05:23:07;5.18;;;4.35;;
77597;SDS011;66756;42.774;23.354;2023-05-07T05:25:34;5.85;;;4.50;;
77597;SDS011;66756;42.774;23.354;2023-05-07T05:27:59;6.72;;;4.45;;
77597;SDS011;66756;42.774;23.354;2023-05-07T05:30:26;6.38;;;4.85;;
77597;SDS011;66756;42.774;23.354;2023-05-07T05:32:52;6.50;;;4.85;;
77597;SDS011;66756;42.774;23.354;2023-05-07T05:35:18;7.25;;;4.60;;
77597;SDS011;66756;42.774;23.354;2023-05-07T05:37:44;7.35;;;4.90;;
77597;SDS011;66756;42.774;23.354;2023-05-07T05:40:10;5.85;;;4.60;;
77597;SDS011;66756;42.774;23.354;2023-05-07T05:42:36;9.23;;;6.05;;
77597;SDS011;66756;42.774;23.354;2023-05-07T05:45:02;6.68;;;5.50;;
77597;SDS011;66756;42.774;23.354;2023-05-07T05:47:29;7.13;;;4.97;;
77597;SDS011;66756;42.774;23.354;2023-05-07T05:49:55;8.18;;;5.80;;
77597;SDS011;66756;42.774;23.354;2023-05-07T05:52:21;7.88;;;5.97;;
77597;SDS011;66756;42.774;23.354;2023-05-07T05:54:48;8.98;;;6.50;;
77597;SDS011;66756;42.774;23.354;2023-05-07T05:57:15;8.32;;;7.43;;
77597;SDS011;66756;42.774;23.354;2023-05-07T05:59:41;9.85;;;6.78;;
77597;SDS011;66756;42.774;23.354;2023-05-07T06:02:07;9.93;;;7.13;;
77597;SDS011;66756;42.774;23.354;2023-05-07T06:04:33;7.80;;;7.00;;
77597;SDS011;66756;42.774;23.354;2023-05-07T06:06:59;10.20;;;6.70;;
77597;SDS011;66756;42.774;23.354;2023-05-07T06:09:25;8.88;;;6.88;;
77597;SDS011;66756;42.774;23.354;2023-05-07T06:11:51;9.43;;;6.65;;
77597;SDS011;66756;42.774;23.354;2023-05-07T06:14:17;8.55;;;6.20;;
77597;SDS011;66756;42.774;23.354;2023-05-07T06:16:43;9.45;;;7.22;;
77597;SDS011;66756;42.774;23.354;2023-05-07T06:19:09;8.70;;;6.60;;
77597;SDS011;66756;42.774;23.354;2023-05-07T06:21:35;8.63;;;6.85;;
77597;SDS011;66756;42.774;23.354;2023-05-07T06:24:01;9.02;;;6.43;;
77597;SDS011;66756;42.774;23.354;2023-05-07T06:26:27;8.75;;;5.97;;
77597;SDS011;66756;42.774;23.354;2023-05-07T06:28:53;10.15;;;6.47;;
77597;SDS011;66756;42.774;23.354;2023-05-07T06:31:20;9.73;;;7.32;;
77597;SDS011;66756;42.774;23.354;2023-05-07T06:33:46;9.00;;;6.38;;
77597;SDS011;66756;42.774;23.354;2023-05-07T06:36:12;8.57;;;6.38;;
77597;SDS011;66756;42.774;23.354;2023-05-07T06:38:38;9.98;;;6.75;;
77597;SDS011;66756;42.774;23.354;2023-05-07T06:41:05;8.20;;;6.18;;
77597;SDS011;66756;42.774;23.354;2023-05-07T06:43:31;8.93;;;6.22;;
77597;SDS011;66756;42.774;23.354;2023-05-07T06:45:57;8.13;;;6.50;;
77597;SDS011;66756;42.774;23.354;2023-05-07T06:48:23;8.00;;;5.93;;
77597;SDS011;66756;42.774;23.354;2023-05-07T06:50:49;9.32;;;6.25;;
77597;SDS011;66756;42.774;23.354;2023-05-07T06:53:15;8.80;;;6.35;;
77597;SDS011;66756;42.774;23.354;2023-05-07T06:55:41;9.00;;;5.82;;
77597;SDS011;66756;42.774;23.354;2023-05-07T06:58:07;8.50;;;5.40;;
77597;SDS011;66756;42.774;23.354;2023-05-07T07:00:33;8.20;;;6.05;;
77597;SDS011;66756;42.774;23.354;2023-05-07T07:03:00;7.85;;;5.60;;
77597;SDS011;66756;42.774;23.354;2023-05-07T07:05:26;7.57;;;5.88;;
77597;SDS011;66756;42.774;23.354;2023-05-07T07:07:52;9.88;;;5.78;;
77597;SDS011;66756;42.774;23.354;2023-05-07T07:10:19;9.25;;;7.78;;
77597;SDS011;66756;42.774;23.354;2023-05-07T07:12:45;8.88;;;7.13;;
77597;SDS011;66756;42.774;23.354;2023-05-07T07:15:11;10.07;;;5.93;;
77597;SDS011;66756;42.774;23.354;2023-05-07T07:17:37;9.02;;;6.78;;
77597;SDS011;66756;42.774;23.354;2023-05-07T07:20:03;11.35;;;7.03;;
77597;SDS011;66756;42.774;23.354;2023-05-07T07:22:29;8.25;;;6.72;;
77597;SDS011;66756;42.774;23.354;2023-05-07T07:24:55;9.32;;;6.32;;
77597;SDS011;66756;42.774;23.354;2023-05-07T07:27:21;10.05;;;6.28;;
77597;SDS011;66756;42.774;23.354;2023-05-07T07:29:47;10.98;;;7.65;;
77597;SDS011;66756;42.774;23.354;2023-05-07T07:32:13;11.30;;;7.65;;
77597;SDS011;66756;42.774;23.354;2023-05-07T07:34:39;14.07;;;8.13;;
77597;SDS011;66756;42.774;23.354;2023-05-07T07:37:05;14.40;;;9.88;;
77597;SDS011;66756;42.774;23.354;2023-05-07T07:39:32;9.70;;;6.85;;
77597;SDS011;66756;42.774;23.354;2023-05-07T07:41:58;11.95;;;8.10;;
77597;SDS011;66756;42.774;23.354;2023-05-07T07:44:24;12.88;;;7.55;;
77597;SDS011;66756;42.774;23.354;2023-05-07T07:46:50;14.38;;;8.48;;
77597;SDS011;66756;42.774;23.354;2023-05-07T07:49:16;12.18;;;7.93;;
77597;SDS011;66756;42.774;23.354;2023-05-07T07:51:43;10.80;;;7.55;;
77597;SDS011;66756;42.774;23.354;2023-05-07T07:54:09;10.95;;;6.43;;
77597;SDS011;66756;42.774;23.354;2023-05-07T07:56:35;9.52;;;6.82;;
77597;SDS011;66756;42.774;23.354;2023-05-07T07:59:01;10.60;;;7.72;;
77597;SDS011;66756;42.774;23.354;2023-05-07T08:01:29;9.77;;;6.07;;
77597;SDS011;66756;42.774;23.354;2023-05-07T08:03:55;12.13;;;7.30;;
77597;SDS011;66756;42.774;23.354;2023-05-07T08:06:23;9.98;;;6.93;;
77597;SDS011;66756;42.774;23.354;2023-05-07T08:08:50;10.85;;;7.32;;
77597;SDS011;66756;42.774;23.354;2023-05-07T08:11:16;12.50;;;7.75;;
77597;SDS011;66756;42.774;23.354;2023-05-07T08:13:42;10.52;;;7.32;;
77597;SDS011;66756;42.774;23.354;2023-05-07T08:16:09;10.00;;;7.15;;
77597;SDS011;66756;42.774;23.354;2023-05-07T08:18:35;11.35;;;8.05;;
77597;SDS011;66756;42.774;23.354;2023-05-07T08:21:02;9.88;;;7.18;;
77597;SDS011;66756;42.774;23.354;2023-05-07T08:23:28;9.82;;;7.80;;
77597;SDS011;66756;42.774;23.354;2023-05-07T08:25:54;11.57;;;7.90;;
77597;SDS011;66756;42.774;23.354;2023-05-07T08:28:20;10.10;;;6.68;;
77597;SDS011;66756;42.774;23.354;2023-05-07T08:30:46;9.55;;;6.55;;
77597;SDS011;66756;42.774;23.354;2023-05-07T08:33:12;10.43;;;6.15;;
77597;SDS011;66756;42.774;23.354;2023-05-07T08:35:38;8.23;;;5.22;;
77597;SDS011;66756;42.774;23.354;2023-05-07T08:38:04;8.65;;;6.28;;
77597;SDS011;66756;42.774;23.354;2023-05-07T08:40:31;8.85;;;5.32;;
77597;SDS011;66756;42.774;23.354;2023-05-07T08:43:00;6.35;;;4.75;;
77597;SDS011;66756;42.774;23.354;2023-05-07T08:45:26;6.78;;;4.45;;
77597;SDS011;66756;42.774;23.354;2023-05-07T08:47:58;8.02;;;5.68;;
77597;SDS011;66756;42.774;23.354;2023-05-07T08:50:24;5.13;;;4.22;;
77597;SDS011;66756;42.774;23.354;2023-05-07T08:52:50;6.55;;;4.38;;
77597;SDS011;66756;42.774;23.354;2023-05-07T08:55:16;6.75;;;4.28;;
77597;SDS011;66756;42.774;23.354;2023-05-07T08:57:42;6.43;;;4.07;;
77597;SDS011;66756;42.774;23.354;2023-05-07T09:00:09;6.43;;;5.05;;
77597;SDS011;66756;42.774;23.354;2023-05-07T09:02:36;5.95;;;3.65;;
77597;SDS011;66756;42.774;23.354;2023-05-07T09:05:02;9.88;;;4.70;;
77597;SDS011;66756;42.774;23.354;2023-05-07T09:07:28;34.58;;;11.48;;
77597;SDS011;66756;42.774;23.354;2023-05-07T09:09:55;7.07;;;4.03;;
77597;SDS011;66756;42.774;23.354;2023-05-07T09:12:22;3.58;;;2.35;;
77597;SDS011;66756;42.774;23.354;2023-05-07T09:14:49;4.90;;;2.90;;
77597;SDS011;66756;42.774;23.354;2023-05-07T09:17:15;5.50;;;2.45;;
77597;SDS011;66756;42.774;23.354;2023-05-07T09:19:43;3.28;;;2.05;;
77597;SDS011;66756;42.774;23.354;2023-05-07T09:22:10;4.22;;;2.38;;
77597;SDS011;66756;42.774;23.354;2023-05-07T09:24:36;3.85;;;2.25;;
77597;SDS011;66756;42.774;23.354;2023-05-07T09:27:06;2.45;;;2.25;;
77597;SDS011;66756;42.774;23.354;2023-05-07T09:29:34;2.17;;;1.40;;
77597;SDS011;66756;42.774;23.354;2023-05-07T09:32:04;3.97;;;1.98;;
77597;SDS011;66756;42.774;23.354;2023-05-07T09:34:31;3.28;;;2.20;;
77597;SDS011;66756;42.774;23.354;2023-05-07T09:37:03;4.03;;;2.25;;
77597;SDS011;66756;42.774;23.354;2023-05-07T09:39:42;3.63;;;2.25;;
77597;SDS011;66756;42.774;23.354;2023-05-07T09:42:08;4.20;;;2.55;;
77597;SDS011;66756;42.774;23.354;2023-05-07T09:44:36;3.95;;;2.38;;
77597;SDS011;66756;42.774;23.354;2023-05-07T09:47:04;3.20;;;2.28;;
77597;SDS011;66756;42.774;23.354;2023-05-07T09:49:30;2.47;;;1.92;;
77597;SDS011;66756;42.774;23.354;2023-05-07T09:51:59;3.05;;;1.98;;
77597;SDS011;66756;42.774;23.354;2023-05-07T09:54:25;3.75;;;2.10;;
77597;SDS011;66756;42.774;23.354;2023-05-07T09:56:54;3.70;;;1.92;;
77597;SDS011;66756;42.774;23.354;2023-05-07T09:59:21;4.63;;;2.35;;
77597;SDS011;66756;42.774;23.354;2023-05-07T10:01:48;2.50;;;2.03;;
77597;SDS011;66756;42.774;23.354;2023-05-07T10:04:14;3.83;;;1.83;;
77597;SDS011;66756;42.774;23.354;2023-05-07T10:06:41;3.95;;;2.30;;
77597;SDS011;66756;42.774;23.354;2023-05-07T10:09:08;2.65;;;1.85;;
77597;SDS011;66756;42.774;23.354;2023-05-07T10:11:36;4.05;;;2.40;;
77597;SDS011;66756;42.774;23.354;2023-05-07T10:14:03;3.63;;;2.20;;
77597;SDS011;66756;42.774;23.354;2023-05-07T10:16:31;2.70;;;2.03;;
77597;SDS011;66756;42.774;23.354;2023-05-07T10:18:58;3.05;;;2.22;;
77597;SDS011;66756;42.774;23.354;2023-05-07T10:21:24;4.65;;;1.88;;
77597;SDS011;66756;42.774;23.354;2023-05-07T10:23:58;4.07;;;2.47;;
77597;SDS011;66756;42.774;23.354;2023-05-07T10:26:25;3.78;;;2.17;;
77597;SDS011;66756;42.774;23.354;2023-05-07T10:28:53;3.95;;;2.30;;
77597;SDS011;66756;42.774;23.354;2023-05-07T10:33:49;3.28;;;1.77;;
77597;SDS011;66756;42.774;23.354;2023-05-07T10:36:16;3.05;;;2.22;;
77597;SDS011;66756;42.774;23.354;2023-05-07T10:38:43;3.42;;;1.85;;
77597;SDS011;66756;42.774;23.354;2023-05-07T10:41:09;5.72;;;1.85;;
77597;SDS011;66756;42.774;23.354;2023-05-07T10:46:14;2.67;;;1.80;;
77597;SDS011;66756;42.774;23.354;2023-05-07T10:51:25;2.58;;;1.83;;
77597;SDS011;66756;42.774;23.354;2023-05-07T10:56:36;4.45;;;2.10;;
77597;SDS011;66756;42.774;23.354;2023-05-07T11:16:32;3.97;;;3.55;;
77597;SDS011;66756;42.774;23.354;2023-05-07T11:19:01;3.58;;;3.17;;
77597;SDS011;66756;42.774;23.354;2023-05-07T11:21:40;4.00;;;3.33;;
77597;SDS011;66756;42.774;23.354;2023-05-07T11:24:07;3.42;;;3.13;;
77597;SDS011;66756;42.774;23.354;2023-05-07T11:26:54;3.33;;;3.03;;
77597;SDS011;66756;42.774;23.354;2023-05-07T11:29:20;4.30;;;4.00;;
77597;SDS011;66756;42.774;23.354;2023-05-07T11:31:50;4.00;;;3.55;;
77597;SDS011;66756;42.774;23.354;2023-05-07T11:34:23;4.82;;;4.43;;
77597;SDS011;66756;42.774;23.354;2023-05-07T11:36:50;3.95;;;3.60;;
77597;SDS011;66756;42.774;23.354;2023-05-07T11:39:23;3.60;;;3.30;;
77597;SDS011;66756;42.774;23.354;2023-05-07T11:41:49;4.13;;;3.83;;
77597;SDS011;66756;42.774;23.354;2023-05-07T11:44:15;4.32;;;2.17;;
77597;SDS011;66756;42.774;23.354;2023-05-07T11:46:44;3.40;;;3.08;;
77597;SDS011;66756;42.774;23.354;2023-05-07T11:49:11;3.55;;;3.20;;
77597;SDS011;66756;42.774;23.354;2023-05-07T11:51:37;4.18;;;3.22;;
77597;SDS011;66756;42.774;23.354;2023-05-07T11:54:03;3.80;;;3.40;;
77597;SDS011;66756;42.774;23.354;2023-05-07T11:58:59;3.17;;;2.88;;
77597;SDS011;66756;42.774;23.354;2023-05-07T12:01:25;3.90;;;2.78;;
77597;SDS011;66756;42.774;23.354;2023-05-07T12:03:51;3.20;;;2.70;;
77597;SDS011;66756;42.774;23.354;2023-05-07T12:06:17;5.95;;;1.92;;
77597;SDS011;66756;42.774;23.354;2023-05-07T12:08:44;3.97;;;2.75;;
77597;SDS011;66756;42.774;23.354;2023-05-07T12:11:13;4.68;;;4.32;;
77597;SDS011;66756;42.774;23.354;2023-05-07T12:13:39;4.72;;;3.17;;
77597;SDS011;66756;42.774;23.354;2023-05-07T12:16:06;3.53;;;3.22;;
77597;SDS011;66756;42.774;23.354;2023-05-07T12:18:33;3.38;;;3.08;;
77597;SDS011;66756;42.774;23.354;2023-05-07T12:21:00;3.53;;;3.22;;
77597;SDS011;66756;42.774;23.354;2023-05-07T12:23:26;4.80;;;3.13;;
77597;SDS011;66756;42.774;23.354;2023-05-07T12:25:52;3.08;;;2.75;;
77597;SDS011;66756;42.774;23.354;2023-05-07T12:28:18;3.40;;;3.00;;
77597;SDS011;66756;42.774;23.354;2023-05-07T12:30:46;3.53;;;3.22;;
77597;SDS011;66756;42.774;23.354;2023-05-07T12:33:13;4.95;;;3.08;;
77597;SDS011;66756;42.774;23.354;2023-05-07T12:35:42;3.15;;;2.78;;
77597;SDS011;66756;42.774;23.354;2023-05-07T12:38:11;3.20;;;2.92;;
77597;SDS011;66756;42.774;23.354;2023-05-07T12:40:39;3.88;;;3.58;;
77597;SDS011;66756;42.774;23.354;2023-05-07T12:43:05;3.53;;;3.22;;
77597;SDS011;66756;42.774;23.354;2023-05-07T12:45:31;2.58;;;2.38;;
77597;SDS011;66756;42.774;23.354;2023-05-07T12:48:02;3.22;;;2.92;;
77597;SDS011;66756;42.774;23.354;2023-05-07T12:50:31;4.18;;;2.90;;
77597;SDS011;66756;42.774;23.354;2023-05-07T12:53:00;2.67;;;2.47;;
77597;SDS011;66756;42.774;23.354;2023-05-07T12:55:31;2.10;;;1.10;;
77597;SDS011;66756;42.774;23.354;2023-05-07T12:58:00;3.90;;;2.20;;
77597;SDS011;66756;42.774;23.354;2023-05-07T13:00:36;5.13;;;2.65;;
77597;SDS011;66756;42.774;23.354;2023-05-07T13:03:02;2.80;;;2.60;;
77597;SDS011;66756;42.774;23.354;2023-05-07T13:05:28;3.17;;;2.55;;
77597;SDS011;66756;42.774;23.354;2023-05-07T13:07:55;3.15;;;2.63;;
77597;SDS011;66756;42.774;23.354;2023-05-07T13:10:22;4.03;;;3.15;;
77597;SDS011;66756;42.774;23.354;2023-05-07T13:12:48;2.50;;;2.13;;
77597;SDS011;66756;42.774;23.354;2023-05-07T13:15:14;3.55;;;3.25;;
77597;SDS011;66756;42.774;23.354;2023-05-07T13:17:40;3.47;;;2.88;;
77597;SDS011;66756;42.774;23.354;2023-05-07T13:20:06;3.22;;;2.78;;
77597;SDS011;66756;42.774;23.354;2023-05-07T13:22:33;3.03;;;2.45;;
77597;SDS011;66756;42.774;23.354;2023-05-07T13:24:59;3.15;;;2.78;;
77597;SDS011;66756;42.774;23.354;2023-05-07T13:27:25;2.55;;;2.22;;
77597;SDS011;66756;42.774;23.354;2023-05-07T13:29:51;2.28;;;1.65;;
77597;SDS011;66756;42.774;23.354;2023-05-07T13:32:17;3.42;;;3.13;;
77597;SDS011;66756;42.774;23.354;2023-05-07T13:34:43;3.90;;;2.42;;
77597;SDS011;66756;42.774;23.354;2023-05-07T13:37:09;3.42;;;2.63;;
77597;SDS011;66756;42.774;23.354;2023-05-07T13:39:35;2.35;;;2.15;;
77597;SDS011;66756;42.774;23.354;2023-05-07T13:42:02;2.35;;;2.15;;
77597;SDS011;66756;42.774;23.354;2023-05-07T13:44:28;2.55;;;2.35;;
77597;SDS011;66756;42.774;23.354;2023-05-07T13:46:54;3.03;;;2.72;;
77597;SDS011;66756;42.774;23.354;2023-05-07T13:49:20;3.33;;;2.60;;
77597;SDS011;66756;42.774;23.354;2023-05-07T13:51:46;3.03;;;2.83;;
77597;SDS011;66756;42.774;23.354;2023-05-07T13:54:12;2.67;;;2.47;;
77597;SDS011;66756;42.774;23.354;2023-05-07T13:56:38;6.07;;;3.28;;
77597;SDS011;66756;42.774;23.354;2023-05-07T13:59:04;3.13;;;2.42;;
77597;SDS011;66756;42.774;23.354;2023-05-07T14:01:30;2.45;;;2.25;;
77597;SDS011;66756;42.774;23.354;2023-05-07T14:03:56;2.22;;;1.50;;
77597;SDS011;66756;42.774;23.354;2023-05-07T14:06:24;2.90;;;2.70;;
77597;SDS011;66756;42.774;23.354;2023-05-07T14:08:50;2.20;;;1.98;;
77597;SDS011;66756;42.774;23.354;2023-05-07T14:11:16;2.47;;;2.28;;
77597;SDS011;66756;42.774;23.354;2023-05-07T14:13:42;2.60;;;2.40;;
77597;SDS011;66756;42.774;23.354;2023-05-07T14:16:08;2.53;;;2.30;;
77597;SDS011;66756;42.774;23.354;2023-05-07T14:18:35;4.47;;;2.50;;
77597;SDS011;66756;42.774;23.354;2023-05-07T14:21:02;2.65;;;1.35;;
77597;SDS011;66756;42.774;23.354;2023-05-07T14:23:28;2.97;;;2.45;;
77597;SDS011;66756;42.774;23.354;2023-05-07T14:25:54;2.45;;;1.60;;
77597;SDS011;66756;42.774;23.354;2023-05-07T14:28:22;2.42;;;2.00;;
77597;SDS011;66756;42.774;23.354;2023-05-07T14:30:48;4.63;;;2.20;;
77597;SDS011;66756;42.774;23.354;2023-05-07T14:33:14;2.58;;;2.38;;
77597;SDS011;66756;42.774;23.354;2023-05-07T14:35:40;2.80;;;2.60;;
77597;SDS011;66756;42.774;23.354;2023-05-07T14:38:06;2.65;;;2.45;;
77597;SDS011;66756;42.774;23.354;2023-05-07T14:40:32;3.55;;;2.63;;
77597;SDS011;66756;42.774;23.354;2023-05-07T14:42:58;3.83;;;3.53;;
77597;SDS011;66756;42.774;23.354;2023-05-07T14:45:24;3.25;;;2.28;;
77597;SDS011;66756;42.774;23.354;2023-05-07T14:47:50;3.25;;;2.95;;
77597;SDS011;66756;42.774;23.354;2023-05-07T14:50:16;3.20;;;2.30;;
77597;SDS011;66756;42.774;23.354;2023-05-07T14:52:42;2.50;;;2.28;;
77597;SDS011;66756;42.774;23.354;2023-05-07T14:55:08;2.40;;;2.20;;
77597;SDS011;66756;42.774;23.354;2023-05-07T14:57:34;3.05;;;2.78;;
77597;SDS011;66756;42.774;23.354;2023-05-07T15:00:01;3.10;;;2.88;;
77597;SDS011;66756;42.774;23.354;2023-05-07T15:02:29;2.78;;;2.53;;